Viewmont, North Carolina
Current Conditions -  °F | °C
As of 10:53 PM on Saturday 24 Jan 2015 (Local Time) from KHKY Reporting Station
Clear Clear  
Wind Chill: 33°   Ceiling: Unl
Heat Index: 38°   Visibility: 10mi
Dew Point: 24°   Wind: 7mph
Humidity: 57%   Direction: 230°SW
Pressure: 29.8"   Gusts: NA
Location:  35.7628°N, 81.3219°W
Report Text: KHKY 250353Z AUTO 23006KT 10SM CLR 03/M04 A2980 RMK AO2 SLP085 T00331044
Loading
Personal Weather Stations






























Interactive Weather Map New forecast layout! Learn more

10-Day Weather Forecast

Advertisements
Track Severe Weather on mobile